Memphis, MO

4:05 AM CST on November 27, 2014 (GMT -0600)
KMOLANCA2 | Change Station
CLOSE
Current Station
Personal Weather Station
Location: Lancaster, MO
Elevation: 915 ft
Nearby Weather Stations

Elev 915 ft 40.52 °N, 92.52 °W | Updated 5 minutes ago

Overcast
Overcast
24.1 °F
Feels Like 24 °F
N
0.0
Wind Variable Wind from WNW

Today
High -- | Low -- °F
--% Chance of Precip.
Yesterday
High -- | Low -- °F
Precip. -- in
7:08 AM 4:43 PM
Waxing Crescent, 28% visible
Pressure 30.45 in
Visibility 6.0 miles
Clouds Overcast 1000 ft
Windchill 24 °F
Dew Point 22 °F
Humidity 91%
Rainfall 0.00 in
Snow Depth Not available.
UV 0 out of 12
Pollen .10 out of 12
Air Quality Not available.
Flu Activity Not available.
METAR KIRK 270955Z AUTO 32007KT 6SM BR OVC010 M03/M05 A3041 RMK AO2 CIG 009V013 SLP312 T10331050

More Conditions Fewer Conditions

Pressure 30.45 in
Visibility 6.0 miles
Clouds Overcast 1000 ft
Windchill 24 °F
Dew Point 22 °F
Humidity 91%
Rainfall 0.00 in
Snow Depth Not available.
UV 0 out of 12
Pollen .10 out of 12
Air Quality Not available.
Flu Activity Not available.
METAR KIRK 270955Z AUTO 32007KT 6SM BR OVC010 M03/M05 A3041 RMK AO2 CIG 009V013 SLP312 T10331050

More Conditions Fewer Conditions

10-Day Weather Forecast

Almanac

Astronomy

Nov. 27, 2014 Rise Set
Actual Time
Civil Twilight
Nautical Twilight
Astronomical Twilight
Moon
Length of Visible Light
Length of Day
Tomorrow will be .
, % of the Moon is Illuminated

Today's Extremes

State Highs State Lows

Community

WunderPhotos

Upload Photos

1,773,968 photos uploaded!

WunderBlogs® & News

Nearby

Air Quality

  Air Quality AQ Index Pollutant
Not available.

Snow Depth

Station Depth Elevation

Earthquake Activity

City Distance Mag. Time & Date
Minimum magnitude displayed is 2.5.

Coastal Water Temperatures

Place Temperature

Nearby Weather Stations